Kivalina, AK

10:52 AKDT le 02 septembre 2014 (GMT -0800)
Noatak | Change Station
CLOSE
Current Station
Aéroport
Location: Noatak,
Altitude: 85 ft
Stations météo à proximité

Alt. 85 ft 67.57 °N, 162.98 °W | Updated 16 minutes ago

Overcast
Couvert
34 ° F
Paraît 31 ° F
N
4
Vent Variable Vent de OSO

Aujourd'hui
Haut(e) -- | Bas -- ° F
--% Risque de précip.
Hier
Haut(e) -- | Bas -- ° F
Precip. -- pouce
7:27 AM 10:19 PM
Premier quartier, 54% visible
Pression 29.78 pouce
Visibilité 4.0 Miles terrestres
Nuages Nuageux 1100 ft
Nuageux 2700 ft
Couvert 3400 ft
Refroidissement éolien 31 ° F
Point de rosée 30 ° F
Humidité 87%
Précipitations 0.12 pouce
Profondeur de la couche neigeuse Non disponible.
UV 0 sur 12
Pollen Non disponible.
Qualité de l'air Non disponible.
Flu Activity Non disponible.
METAR PAWN 021836Z AUTO 25003KT 4SM BKN011 BKN027 OVC034 01/M01 A2978 RMK AO1

More Conditions Fewer Conditions

Pression 29.78 pouce
Visibilité 4.0 Miles terrestres
Nuages Nuageux 1100 ft
Nuageux 2700 ft
Couvert 3400 ft
Refroidissement éolien 31 ° F
Point de rosée 30 ° F
Humidité 87%
Précipitations 0.12 pouce
Profondeur de la couche neigeuse Non disponible.
UV 0 sur 12
Pollen Non disponible.
Qualité de l'air Non disponible.
Flu Activity Non disponible.
METAR PAWN 021836Z AUTO 25003KT 4SM BKN011 BKN027 OVC034 01/M01 A2978 RMK AO1

More Conditions Fewer Conditions

10-Day Weather Forecast

Almanac

Astronomie

Sep. 02, 2014 Lever Coucher
Temps réel 07:27 AKDT 22:19 AKDT
Crépuscule civil 06:24 AKDT 23:21 AKDT
Crépuscule nautique 04:45 AKDT 00:56 AKDT
Crépuscule astronomique Sun does not rise Sun does not rise
Lune 19:01 AKDT 23:47 AKDT
Durée de lumière visible 16h 57m
Longueur du jour
14h 51m
Tomorrow will be 7m 47s shorter.
Premier quartier, 54% of the Moon is Illuminated
Aujourd'hui
Premier quartier
Sep 8
Pleine lune
Sep 15
Dernier quartier
Sep 24
Nouveau
Oct 1
Premier quartier

Extrêmes aujourd'hui

State Highs State Lows

Community

WunderPhotos

Upload Photos

1,749,743 Photos téléchargées !

WunderBlogs® & News

By Dr. Jeff Masters
Director of Meteorology, Weather Underground
By Kari Strenfel
Meteorologist, Weather Underground
By Christopher C. Burt
Weather Historian, Weather Underground
September 2, 2014
September 2, 2014
September 2, 2014

Nearby

Qualité de l'air

Not available.

Épaisseur de neige

Station Depth Altitude
Pargon Creek 0 in 300 ft
Rocky Point 4 in 500 ft
Gobblers Knob 0 in 2030 ft
Coldfoot 1 in 1040 ft
Atigun Pass 9 in 4800 ft

Activité sismique

Ville Distance Mag. Time & Date
No recent earthquake activity has been reported nearby.
Minimum magnitude displayed is 2.5.

Températures des eaux côtières

Lieu Température
Aucun rapport de station

Stations météo à proximité